sensor_id;sensor_type;location;lat;lon;timestamp;temperature;humidity
30134;DHT22;16946;49.984;10.672;2023-05-07T00:00:12;11.90;99.90
30134;DHT22;16946;49.984;10.672;2023-05-07T00:00:45;12.00;99.90
30134;DHT22;16946;49.984;10.672;2023-05-07T00:01:16;12.00;99.90
30134;DHT22;16946;49.984;10.672;2023-05-07T00:01:46;12.00;99.90
30134;DHT22;16946;49.984;10.672;2023-05-07T00:02:17;12.00;99.90
30134;DHT22;16946;49.984;10.672;2023-05-07T00:02:48;12.00;99.90
30134;DHT22;16946;49.984;10.672;2023-05-07T00:03:18;12.00;99.90
30134;DHT22;16946;49.984;10.672;2023-05-07T00:03:49;12.10;99.90
30134;DHT22;16946;49.984;10.672;2023-05-07T00:04:19;12.10;99.90
30134;DHT22;16946;49.984;10.672;2023-05-07T00:04:50;12.00;99.90
30134;DHT22;16946;49.984;10.672;2023-05-07T00:05:22;12.00;99.90
30134;DHT22;16946;49.984;10.672;2023-05-07T00:05:52;12.00;99.90
30134;DHT22;16946;49.984;10.672;2023-05-07T00:06:23;12.00;99.90
30134;DHT22;16946;49.984;10.672;2023-05-07T00:06:54;12.00;99.90
30134;DHT22;16946;49.984;10.672;2023-05-07T00:07:25;12.00;99.90
30134;DHT22;16946;49.984;10.672;2023-05-07T00:07:56;12.00;99.90
30134;DHT22;16946;49.984;10.672;2023-05-07T00:08:27;12.00;99.90
30134;DHT22;16946;49.984;10.672;2023-05-07T00:08:58;12.00;99.90
30134;DHT22;16946;49.984;10.672;2023-05-07T00:09:28;12.00;99.90
30134;DHT22;16946;49.984;10.672;2023-05-07T00:09:59;12.00;99.90
30134;DHT22;16946;49.984;10.672;2023-05-07T00:10:29;12.00;99.90
30134;DHT22;16946;49.984;10.672;2023-05-07T00:11:00;12.00;99.90
30134;DHT22;16946;49.984;10.672;2023-05-07T00:11:30;12.10;99.90
30134;DHT22;16946;49.984;10.672;2023-05-07T00:12:01;12.10;99.90
30134;DHT22;16946;49.984;10.672;2023-05-07T00:12:32;12.10;99.90
30134;DHT22;16946;49.984;10.672;2023-05-07T00:13:06;12.10;99.90
30134;DHT22;16946;49.984;10.672;2023-05-07T00:13:36;12.10;99.90
30134;DHT22;16946;49.984;10.672;2023-05-07T00:14:07;12.10;99.90
30134;DHT22;16946;49.984;10.672;2023-05-07T00:14:37;12.10;99.90
30134;DHT22;16946;49.984;10.672;2023-05-07T00:15:08;12.20;99.90
30134;DHT22;16946;49.984;10.672;2023-05-07T00:15:39;12.20;99.90
30134;DHT22;16946;49.984;10.672;2023-05-07T00:16:09;12.20;99.90
30134;DHT22;16946;49.984;10.672;2023-05-07T00:16:40;12.20;99.90
30134;DHT22;16946;49.984;10.672;2023-05-07T00:17:10;12.20;99.90
30134;DHT22;16946;49.984;10.672;2023-05-07T00:17:41;12.20;99.90
30134;DHT22;16946;49.984;10.672;2023-05-07T00:18:12;12.20;99.90
30134;DHT22;16946;49.984;10.672;2023-05-07T00:18:42;12.20;99.90
30134;DHT22;16946;49.984;10.672;2023-05-07T00:19:13;12.20;99.90
30134;DHT22;16946;49.984;10.672;2023-05-07T00:19:43;12.20;99.90
30134;DHT22;16946;49.984;10.672;2023-05-07T00:20:14;12.20;99.90
30134;DHT22;16946;49.984;10.672;2023-05-07T00:20:44;12.20;99.90
30134;DHT22;16946;49.984;10.672;2023-05-07T00:21:15;12.20;99.90
30134;DHT22;16946;49.984;10.672;2023-05-07T00:21:45;12.20;99.90
30134;DHT22;16946;49.984;10.672;2023-05-07T00:22:16;12.20;99.90
30134;DHT22;16946;49.984;10.672;2023-05-07T00:22:47;12.20;99.90
30134;DHT22;16946;49.984;10.672;2023-05-07T00:23:18;12.20;99.90
30134;DHT22;16946;49.984;10.672;2023-05-07T00:23:48;12.20;99.90
30134;DHT22;16946;49.984;10.672;2023-05-07T00:24:19;12.20;99.90
30134;DHT22;16946;49.984;10.672;2023-05-07T00:24:49;12.30;99.90
30134;DHT22;16946;49.984;10.672;2023-05-07T00:25:20;12.20;99.90
30134;DHT22;16946;49.984;10.672;2023-05-07T00:25:50;12.30;99.90
30134;DHT22;16946;49.984;10.672;2023-05-07T00:26:22;12.20;99.90
30134;DHT22;16946;49.984;10.672;2023-05-07T00:26:52;12.30;99.90
30134;DHT22;16946;49.984;10.672;2023-05-07T00:27:23;12.30;99.90
30134;DHT22;16946;49.984;10.672;2023-05-07T00:27:53;12.30;99.90
30134;DHT22;16946;49.984;10.672;2023-05-07T00:28:24;12.30;99.90
30134;DHT22;16946;49.984;10.672;2023-05-07T00:28:54;12.30;99.90
30134;DHT22;16946;49.984;10.672;2023-05-07T00:29:25;12.30;99.90
30134;DHT22;16946;49.984;10.672;2023-05-07T00:29:56;12.30;99.90
30134;DHT22;16946;49.984;10.672;2023-05-07T00:30:26;12.20;99.90
30134;DHT22;16946;49.984;10.672;2023-05-07T00:30:57;12.20;99.90
30134;DHT22;16946;49.984;10.672;2023-05-07T00:31:27;12.20;99.90
30134;DHT22;16946;49.984;10.672;2023-05-07T00:31:58;12.20;99.90
30134;DHT22;16946;49.984;10.672;2023-05-07T00:32:28;12.10;99.90
30134;DHT22;16946;49.984;10.672;2023-05-07T00:32:59;12.10;99.90
30134;DHT22;16946;49.984;10.672;2023-05-07T00:33:29;12.00;99.90
30134;DHT22;16946;49.984;10.672;2023-05-07T00:34:00;12.00;99.90
30134;DHT22;16946;49.984;10.672;2023-05-07T00:34:30;12.00;99.90
30134;DHT22;16946;49.984;10.672;2023-05-07T00:35:01;11.90;99.90
30134;DHT22;16946;49.984;10.672;2023-05-07T00:35:31;12.00;99.90
30134;DHT22;16946;49.984;10.672;2023-05-07T00:36:02;11.90;99.90
30134;DHT22;16946;49.984;10.672;2023-05-07T00:36:33;12.00;99.90
30134;DHT22;16946;49.984;10.672;2023-05-07T00:37:03;12.00;99.90
30134;DHT22;16946;49.984;10.672;2023-05-07T00:37:34;12.00;99.90
30134;DHT22;16946;49.984;10.672;2023-05-07T00:38:04;12.00;99.90
30134;DHT22;16946;49.984;10.672;2023-05-07T00:38:35;12.00;99.90
30134;DHT22;16946;49.984;10.672;2023-05-07T00:39:06;12.00;99.90
30134;DHT22;16946;49.984;10.672;2023-05-07T00:39:37;12.00;99.90
30134;DHT22;16946;49.984;10.672;2023-05-07T00:40:07;12.00;99.90
30134;DHT22;16946;49.984;10.672;2023-05-07T00:40:38;12.00;99.90
30134;DHT22;16946;49.984;10.672;2023-05-07T00:41:09;12.00;99.90
30134;DHT22;16946;49.984;10.672;2023-05-07T00:41:39;12.00;99.90
30134;DHT22;16946;49.984;10.672;2023-05-07T00:42:10;12.00;99.90
30134;DHT22;16946;49.984;10.672;2023-05-07T00:42:40;12.00;99.90
30134;DHT22;16946;49.984;10.672;2023-05-07T00:43:11;12.00;99.90
30134;DHT22;16946;49.984;10.672;2023-05-07T00:43:43;12.00;99.90
30134;DHT22;16946;49.984;10.672;2023-05-07T00:44:13;12.00;99.90
30134;DHT22;16946;49.984;10.672;2023-05-07T00:44:44;12.00;99.90
30134;DHT22;16946;49.984;10.672;2023-05-07T00:45:16;12.10;99.90
30134;DHT22;16946;49.984;10.672;2023-05-07T00:45:47;12.10;99.90
30134;DHT22;16946;49.984;10.672;2023-05-07T00:46:20;12.10;99.90
30134;DHT22;16946;49.984;10.672;2023-05-07T00:46:50;12.10;99.90
30134;DHT22;16946;49.984;10.672;2023-05-07T00:47:21;12.10;99.90
30134;DHT22;16946;49.984;10.672;2023-05-07T00:47:54;12.10;99.90
30134;DHT22;16946;49.984;10.672;2023-05-07T00:48:25;12.20;99.90
30134;DHT22;16946;49.984;10.672;2023-05-07T00:48:57;12.20;99.90
30134;DHT22;16946;49.984;10.672;2023-05-07T00:49:37;12.20;99.90
30134;DHT22;16946;49.984;10.672;2023-05-07T00:50:08;12.20;99.90
30134;DHT22;16946;49.984;10.672;2023-05-07T00:50:41;12.20;99.90
30134;DHT22;16946;49.984;10.672;2023-05-07T00:51:12;12.30;99.90
30134;DHT22;16946;49.984;10.672;2023-05-07T00:51:42;12.20;99.90
30134;DHT22;16946;49.984;10.672;2023-05-07T00:52:14;12.30;99.90
30134;DHT22;16946;49.984;10.672;2023-05-07T00:52:46;12.30;99.90
30134;DHT22;16946;49.984;10.672;2023-05-07T00:53:16;12.30;99.90
30134;DHT22;16946;49.984;10.672;2023-05-07T00:53:47;12.30;99.90
30134;DHT22;16946;49.984;10.672;2023-05-07T00:54:18;12.30;99.90
30134;DHT22;16946;49.984;10.672;2023-05-07T00:54:49;12.30;99.90
30134;DHT22;16946;49.984;10.672;2023-05-07T00:55:21;12.30;99.90
30134;DHT22;16946;49.984;10.672;2023-05-07T00:55:51;12.30;99.90
30134;DHT22;16946;49.984;10.672;2023-05-07T00:56:22;12.30;99.90
30134;DHT22;16946;49.984;10.672;2023-05-07T00:56:54;12.30;99.90
30134;DHT22;16946;49.984;10.672;2023-05-07T00:57:25;12.30;99.90
30134;DHT22;16946;49.984;10.672;2023-05-07T00:57:56;12.30;99.90
30134;DHT22;16946;49.984;10.672;2023-05-07T00:58:26;12.30;99.90
30134;DHT22;16946;49.984;10.672;2023-05-07T00:58:57;12.30;99.90
30134;DHT22;16946;49.984;10.672;2023-05-07T00:59:28;12.30;99.90
30134;DHT22;16946;49.984;10.672;2023-05-07T00:59:58;12.30;99.90
30134;DHT22;16946;49.984;10.672;2023-05-07T01:00:29;12.30;99.90
30134;DHT22;16946;49.984;10.672;2023-05-07T01:00:59;12.30;99.90
30134;DHT22;16946;49.984;10.672;2023-05-07T01:01:31;12.20;99.90
30134;DHT22;16946;49.984;10.672;2023-05-07T01:02:02;12.20;99.90
30134;DHT22;16946;49.984;10.672;2023-05-07T01:02:32;12.20;99.90
30134;DHT22;16946;49.984;10.672;2023-05-07T01:03:03;12.30;99.90
30134;DHT22;16946;49.984;10.672;2023-05-07T01:03:35;12.20;99.90
30134;DHT22;16946;49.984;10.672;2023-05-07T01:04:05;12.20;99.90
30134;DHT22;16946;49.984;10.672;2023-05-07T01:04:36;12.30;99.90
30134;DHT22;16946;49.984;10.672;2023-05-07T01:05:10;12.20;99.90
30134;DHT22;16946;49.984;10.672;2023-05-07T01:05:43;12.20;99.90
30134;DHT22;16946;49.984;10.672;2023-05-07T01:06:16;12.20;99.90
30134;DHT22;16946;49.984;10.672;2023-05-07T01:06:47;12.20;99.90
30134;DHT22;16946;49.984;10.672;2023-05-07T01:07:18;12.20;99.90
30134;DHT22;16946;49.984;10.672;2023-05-07T01:07:49;12.20;99.90
30134;DHT22;16946;49.984;10.672;2023-05-07T01:08:22;12.20;99.90
30134;DHT22;16946;49.984;10.672;2023-05-07T01:08:53;12.20;99.90
30134;DHT22;16946;49.984;10.672;2023-05-07T01:09:27;12.30;99.90
30134;DHT22;16946;49.984;10.672;2023-05-07T01:09:58;12.30;99.90
30134;DHT22;16946;49.984;10.672;2023-05-07T01:10:29;12.30;99.90
30134;DHT22;16946;49.984;10.672;2023-05-07T01:11:01;12.30;99.90
30134;DHT22;16946;49.984;10.672;2023-05-07T01:11:31;12.30;99.90
30134;DHT22;16946;49.984;10.672;2023-05-07T01:12:03;12.40;99.90
30134;DHT22;16946;49.984;10.672;2023-05-07T01:12:35;12.30;99.90
30134;DHT22;16946;49.984;10.672;2023-05-07T01:13:06;12.40;99.90
30134;DHT22;16946;49.984;10.672;2023-05-07T01:13:37;12.40;99.90
30134;DHT22;16946;49.984;10.672;2023-05-07T01:14:09;12.40;99.90
30134;DHT22;16946;49.984;10.672;2023-05-07T01:14:40;12.50;99.90
30134;DHT22;16946;49.984;10.672;2023-05-07T01:15:10;12.50;99.90
30134;DHT22;16946;49.984;10.672;2023-05-07T01:15:41;12.50;99.90
30134;DHT22;16946;49.984;10.672;2023-05-07T01:16:11;12.60;99.90
30134;DHT22;16946;49.984;10.672;2023-05-07T01:16:42;12.50;99.90
30134;DHT22;16946;49.984;10.672;2023-05-07T01:17:12;12.50;99.90
30134;DHT22;16946;49.984;10.672;2023-05-07T01:17:43;12.60;99.90
30134;DHT22;16946;49.984;10.672;2023-05-07T01:18:14;12.60;99.90
30134;DHT22;16946;49.984;10.672;2023-05-07T01:18:45;12.60;99.90
30134;DHT22;16946;49.984;10.672;2023-05-07T01:19:19;12.60;99.90
30134;DHT22;16946;49.984;10.672;2023-05-07T01:19:49;12.60;99.90
30134;DHT22;16946;49.984;10.672;2023-05-07T01:20:20;12.60;99.90
30134;DHT22;16946;49.984;10.672;2023-05-07T01:20:52;12.70;99.90
30134;DHT22;16946;49.984;10.672;2023-05-07T01:21:26;12.70;99.90
30134;DHT22;16946;49.984;10.672;2023-05-07T01:22:02;12.70;99.90
30134;DHT22;16946;49.984;10.672;2023-05-07T01:22:35;12.70;99.90
30134;DHT22;16946;49.984;10.672;2023-05-07T01:23:10;12.80;99.90
30134;DHT22;16946;49.984;10.672;2023-05-07T01:23:41;12.80;99.90
30134;DHT22;16946;49.984;10.672;2023-05-07T01:24:12;12.80;99.90
30134;DHT22;16946;49.984;10.672;2023-05-07T01:24:42;12.80;99.90
30134;DHT22;16946;49.984;10.672;2023-05-07T01:25:13;12.80;99.90
30134;DHT22;16946;49.984;10.672;2023-05-07T01:25:53;12.80;99.90
30134;DHT22;16946;49.984;10.672;2023-05-07T01:26:23;12.70;99.90
30134;DHT22;16946;49.984;10.672;2023-05-07T01:26:54;12.80;99.90
30134;DHT22;16946;49.984;10.672;2023-05-07T01:27:25;12.80;99.90
30134;DHT22;16946;49.984;10.672;2023-05-07T01:27:55;12.80;99.90
30134;DHT22;16946;49.984;10.672;2023-05-07T01:28:26;12.80;99.90
30134;DHT22;16946;49.984;10.672;2023-05-07T01:28:56;12.80;99.90
30134;DHT22;16946;49.984;10.672;2023-05-07T01:29:28;12.80;99.90
30134;DHT22;16946;49.984;10.672;2023-05-07T01:29:59;12.80;99.90
30134;DHT22;16946;49.984;10.672;2023-05-07T01:30:30;12.80;99.90
30134;DHT22;16946;49.984;10.672;2023-05-07T01:31:02;12.80;99.90
30134;DHT22;16946;49.984;10.672;2023-05-07T01:31:34;12.80;99.90
30134;DHT22;16946;49.984;10.672;2023-05-07T01:32:06;12.80;99.90
30134;DHT22;16946;49.984;10.672;2023-05-07T01:32:44;12.80;99.90
30134;DHT22;16946;49.984;10.672;2023-05-07T01:33:19;12.80;99.90
30134;DHT22;16946;49.984;10.672;2023-05-07T01:33:52;12.80;99.90
30134;DHT22;16946;49.984;10.672;2023-05-07T01:34:23;12.80;99.90
30134;DHT22;16946;49.984;10.672;2023-05-07T01:34:55;12.80;99.90
30134;DHT22;16946;49.984;10.672;2023-05-07T01:35:32;12.80;99.90
30134;DHT22;16946;49.984;10.672;2023-05-07T01:36:05;12.80;99.90
30134;DHT22;16946;49.984;10.672;2023-05-07T01:36:38;12.80;99.90
30134;DHT22;16946;49.984;10.672;2023-05-07T01:37:10;12.80;99.90
30134;DHT22;16946;49.984;10.672;2023-05-07T01:37:40;12.80;99.90
30134;DHT22;16946;49.984;10.672;2023-05-07T01:38:12;12.80;99.90
30134;DHT22;16946;49.984;10.672;2023-05-07T01:38:43;12.80;99.90
30134;DHT22;16946;49.984;10.672;2023-05-07T01:39:15;12.80;99.90
30134;DHT22;16946;49.984;10.672;2023-05-07T01:39:46;12.80;99.90
30134;DHT22;16946;49.984;10.672;2023-05-07T01:40:18;12.80;99.90
30134;DHT22;16946;49.984;10.672;2023-05-07T01:40:48;12.80;99.90
30134;DHT22;16946;49.984;10.672;2023-05-07T01:41:19;12.70;99.90
30134;DHT22;16946;49.984;10.672;2023-05-07T01:41:50;12.80;99.90
30134;DHT22;16946;49.984;10.672;2023-05-07T01:42:21;12.80;99.90
30134;DHT22;16946;49.984;10.672;2023-05-07T01:42:52;12.80;99.90
30134;DHT22;16946;49.984;10.672;2023-05-07T01:43:24;12.80;99.90
30134;DHT22;16946;49.984;10.672;2023-05-07T01:43:54;12.80;99.90
30134;DHT22;16946;49.984;10.672;2023-05-07T01:44:26;12.70;99.90
30134;DHT22;16946;49.984;10.672;2023-05-07T01:44:57;12.70;99.90
30134;DHT22;16946;49.984;10.672;2023-05-07T01:45:28;12.70;99.90
30134;DHT22;16946;49.984;10.672;2023-05-07T01:46:00;12.70;99.90
30134;DHT22;16946;49.984;10.672;2023-05-07T01:46:31;12.70;99.90
30134;DHT22;16946;49.984;10.672;2023-05-07T01:47:03;12.70;99.90
30134;DHT22;16946;49.984;10.672;2023-05-07T01:47:35;12.70;99.90
30134;DHT22;16946;49.984;10.672;2023-05-07T01:48:07;12.70;99.90
30134;DHT22;16946;49.984;10.672;2023-05-07T01:48:37;12.80;99.90
30134;DHT22;16946;49.984;10.672;2023-05-07T01:49:08;12.80;99.90
30134;DHT22;16946;49.984;10.672;2023-05-07T01:49:40;12.80;99.90
30134;DHT22;16946;49.984;10.672;2023-05-07T01:50:10;12.80;99.90
30134;DHT22;16946;49.984;10.672;2023-05-07T01:50:44;12.80;99.90
30134;DHT22;16946;49.984;10.672;2023-05-07T01:51:15;12.80;99.90
30134;DHT22;16946;49.984;10.672;2023-05-07T01:51:46;12.80;99.90
30134;DHT22;16946;49.984;10.672;2023-05-07T01:52:17;12.80;99.90
30134;DHT22;16946;49.984;10.672;2023-05-07T01:52:50;12.80;99.90
30134;DHT22;16946;49.984;10.672;2023-05-07T01:53:21;12.80;99.90
30134;DHT22;16946;49.984;10.672;2023-05-07T01:53:52;12.80;99.90
30134;DHT22;16946;49.984;10.672;2023-05-07T01:54:26;12.80;99.90
30134;DHT22;16946;49.984;10.672;2023-05-07T01:54:58;12.80;99.90
30134;DHT22;16946;49.984;10.672;2023-05-07T01:55:28;12.80;99.90
30134;DHT22;16946;49.984;10.672;2023-05-07T01:55:59;12.80;99.90
30134;DHT22;16946;49.984;10.672;2023-05-07T01:56:30;12.80;99.90
30134;DHT22;16946;49.984;10.672;2023-05-07T01:57:01;12.80;99.90
30134;DHT22;16946;49.984;10.672;2023-05-07T01:57:31;12.80;99.90
30134;DHT22;16946;49.984;10.672;2023-05-07T01:58:02;12.80;99.90
30134;DHT22;16946;49.984;10.672;2023-05-07T01:58:33;12.80;99.90
30134;DHT22;16946;49.984;10.672;2023-05-07T01:59:04;12.80;99.90
30134;DHT22;16946;49.984;10.672;2023-05-07T01:59:35;12.80;99.90
30134;DHT22;16946;49.984;10.672;2023-05-07T02:00:06;12.80;99.90
30134;DHT22;16946;49.984;10.672;2023-05-07T02:00:37;12.80;99.90
30134;DHT22;16946;49.984;10.672;2023-05-07T02:01:07;12.70;99.90
30134;DHT22;16946;49.984;10.672;2023-05-07T02:01:38;12.80;99.90
30134;DHT22;16946;49.984;10.672;2023-05-07T02:02:08;12.70;99.90
30134;DHT22;16946;49.984;10.672;2023-05-07T02:02:39;12.70;99.90
30134;DHT22;16946;49.984;10.672;2023-05-07T02:03:09;12.70;99.90
30134;DHT22;16946;49.984;10.672;2023-05-07T02:03:40;12.70;99.90
30134;DHT22;16946;49.984;10.672;2023-05-07T02:04:11;12.70;99.90
30134;DHT22;16946;49.984;10.672;2023-05-07T02:04:41;12.70;99.90
30134;DHT22;16946;49.984;10.672;2023-05-07T02:05:12;12.70;99.90
30134;DHT22;16946;49.984;10.672;2023-05-07T02:05:42;12.70;99.90
30134;DHT22;16946;49.984;10.672;2023-05-07T02:06:13;12.70;99.90
30134;DHT22;16946;49.984;10.672;2023-05-07T02:06:43;12.70;99.90
30134;DHT22;16946;49.984;10.672;2023-05-07T02:07:14;12.70;99.90
30134;DHT22;16946;49.984;10.672;2023-05-07T02:07:44;12.70;99.90
30134;DHT22;16946;49.984;10.672;2023-05-07T02:08:15;12.70;99.90
30134;DHT22;16946;49.984;10.672;2023-05-07T02:08:47;12.70;99.90
30134;DHT22;16946;49.984;10.672;2023-05-07T02:09:18;12.70;99.90
30134;DHT22;16946;49.984;10.672;2023-05-07T02:09:48;12.80;99.90
30134;DHT22;16946;49.984;10.672;2023-05-07T02:10:19;12.70;99.90
30134;DHT22;16946;49.984;10.672;2023-05-07T02:10:49;12.70;99.90
30134;DHT22;16946;49.984;10.672;2023-05-07T02:11:21;12.70;99.90
30134;DHT22;16946;49.984;10.672;2023-05-07T02:11:52;12.70;99.90
30134;DHT22;16946;49.984;10.672;2023-05-07T02:12:23;12.70;99.90
30134;DHT22;16946;49.984;10.672;2023-05-07T02:12:53;12.70;99.90
30134;DHT22;16946;49.984;10.672;2023-05-07T02:13:24;12.80;99.90
30134;DHT22;16946;49.984;10.672;2023-05-07T02:13:54;12.80;99.90
30134;DHT22;16946;49.984;10.672;2023-05-07T02:14:25;12.80;99.90
30134;DHT22;16946;49.984;10.672;2023-05-07T02:14:56;12.80;99.90
30134;DHT22;16946;49.984;10.672;2023-05-07T02:15:26;12.80;99.90
30134;DHT22;16946;49.984;10.672;2023-05-07T02:15:57;12.90;99.90
30134;DHT22;16946;49.984;10.672;2023-05-07T02:16:28;12.80;99.90
30134;DHT22;16946;49.984;10.672;2023-05-07T02:16:58;12.80;99.90
30134;DHT22;16946;49.984;10.672;2023-05-07T02:17:29;12.90;99.90
30134;DHT22;16946;49.984;10.672;2023-05-07T02:18:04;12.80;99.90
30134;DHT22;16946;49.984;10.672;2023-05-07T02:18:35;12.90;99.90
30134;DHT22;16946;49.984;10.672;2023-05-07T02:19:06;12.80;99.90
30134;DHT22;16946;49.984;10.672;2023-05-07T02:19:36;12.80;99.90
30134;DHT22;16946;49.984;10.672;2023-05-07T02:20:07;12.80;99.90
30134;DHT22;16946;49.984;10.672;2023-05-07T02:20:43;12.80;99.90
30134;DHT22;16946;49.984;10.672;2023-05-07T02:21:14;12.80;99.90
30134;DHT22;16946;49.984;10.672;2023-05-07T02:21:44;12.80;99.90
30134;DHT22;16946;49.984;10.672;2023-05-07T02:22:15;12.70;99.90
30134;DHT22;16946;49.984;10.672;2023-05-07T02:22:45;12.70;99.90
30134;DHT22;16946;49.984;10.672;2023-05-07T02:23:16;12.70;99.90
30134;DHT22;16946;49.984;10.672;2023-05-07T02:23:47;12.70;99.90
30134;DHT22;16946;49.984;10.672;2023-05-07T02:24:17;12.70;99.90
30134;DHT22;16946;49.984;10.672;2023-05-07T02:24:48;12.60;99.90
30134;DHT22;16946;49.984;10.672;2023-05-07T02:25:19;12.70;99.90
30134;DHT22;16946;49.984;10.672;2023-05-07T02:25:49;12.60;99.90
30134;DHT22;16946;49.984;10.672;2023-05-07T02:26:20;12.60;99.90
30134;DHT22;16946;49.984;10.672;2023-05-07T02:26:51;12.70;99.90
30134;DHT22;16946;49.984;10.672;2023-05-07T02:27:22;12.60;99.90
30134;DHT22;16946;49.984;10.672;2023-05-07T02:27:52;12.60;99.90
30134;DHT22;16946;49.984;10.672;2023-05-07T02:28:23;12.60;99.90
30134;DHT22;16946;49.984;10.672;2023-05-07T02:28:54;12.60;99.90
30134;DHT22;16946;49.984;10.672;2023-05-07T02:29:24;12.60;99.90
30134;DHT22;16946;49.984;10.672;2023-05-07T02:29:55;12.60;99.90
30134;DHT22;16946;49.984;10.672;2023-05-07T02:30:25;12.70;99.90
30134;DHT22;16946;49.984;10.672;2023-05-07T02:30:56;12.70;99.90
30134;DHT22;16946;49.984;10.672;2023-05-07T02:31:28;12.70;99.90
30134;DHT22;16946;49.984;10.672;2023-05-07T02:31:59;12.70;99.90
30134;DHT22;16946;49.984;10.672;2023-05-07T02:32:29;12.60;99.90
30134;DHT22;16946;49.984;10.672;2023-05-07T02:33:00;12.60;99.90
30134;DHT22;16946;49.984;10.672;2023-05-07T02:33:30;12.60;99.90
30134;DHT22;16946;49.984;10.672;2023-05-07T02:34:01;12.60;99.90
30134;DHT22;16946;49.984;10.672;2023-05-07T02:34:32;12.50;99.90
30134;DHT22;16946;49.984;10.672;2023-05-07T02:35:02;12.50;99.90
30134;DHT22;16946;49.984;10.672;2023-05-07T02:35:33;12.50;99.90
30134;DHT22;16946;49.984;10.672;2023-05-07T02:36:10;12.40;99.90
30134;DHT22;16946;49.984;10.672;2023-05-07T02:36:41;12.40;99.90
30134;DHT22;16946;49.984;10.672;2023-05-07T02:37:12;12.40;99.90
30134;DHT22;16946;49.984;10.672;2023-05-07T02:37:42;12.30;99.90
30134;DHT22;16946;49.984;10.672;2023-05-07T02:38:13;12.30;99.90
30134;DHT22;16946;49.984;10.672;2023-05-07T02:38:43;12.20;99.90
30134;DHT22;16946;49.984;10.672;2023-05-07T02:39:14;12.20;99.90
30134;DHT22;16946;49.984;10.672;2023-05-07T02:39:45;12.20;99.90
30134;DHT22;16946;49.984;10.672;2023-05-07T02:40:16;12.20;99.90
30134;DHT22;16946;49.984;10.672;2023-05-07T02:40:46;12.20;99.90
30134;DHT22;16946;49.984;10.672;2023-05-07T02:41:17;12.10;99.90
30134;DHT22;16946;49.984;10.672;2023-05-07T02:41:47;12.10;99.90
30134;DHT22;16946;49.984;10.672;2023-05-07T02:42:18;12.10;99.90
30134;DHT22;16946;49.984;10.672;2023-05-07T02:42:48;12.10;99.90
30134;DHT22;16946;49.984;10.672;2023-05-07T02:43:19;12.00;99.90
30134;DHT22;16946;49.984;10.672;2023-05-07T02:43:49;12.00;99.90
30134;DHT22;16946;49.984;10.672;2023-05-07T02:44:20;12.00;99.90
30134;DHT22;16946;49.984;10.672;2023-05-07T02:44:50;12.00;99.90
30134;DHT22;16946;49.984;10.672;2023-05-07T02:45:21;12.00;99.90
30134;DHT22;16946;49.984;10.672;2023-05-07T02:46:05;12.00;99.90
30134;DHT22;16946;49.984;10.672;2023-05-07T02:46:36;11.90;99.90
30134;DHT22;16946;49.984;10.672;2023-05-07T02:47:06;11.90;99.90
30134;DHT22;16946;49.984;10.672;2023-05-07T02:47:38;11.90;99.90
30134;DHT22;16946;49.984;10.672;2023-05-07T02:48:09;11.90;99.90
30134;DHT22;16946;49.984;10.672;2023-05-07T02:48:40;11.90;99.90
30134;DHT22;16946;49.984;10.672;2023-05-07T02:49:10;11.90;99.90
30134;DHT22;16946;49.984;10.672;2023-05-07T02:49:41;11.90;99.90
30134;DHT22;16946;49.984;10.672;2023-05-07T02:50:11;11.90;99.90
30134;DHT22;16946;49.984;10.672;2023-05-07T02:50:42;11.90;99.90
30134;DHT22;16946;49.984;10.672;2023-05-07T02:51:12;11.90;99.90
30134;DHT22;16946;49.984;10.672;2023-05-07T02:51:43;11.80;99.90
30134;DHT22;16946;49.984;10.672;2023-05-07T02:52:13;11.80;99.90
30134;DHT22;16946;49.984;10.672;2023-05-07T02:52:44;11.80;99.90
30134;DHT22;16946;49.984;10.672;2023-05-07T02:53:15;11.80;99.90
30134;DHT22;16946;49.984;10.672;2023-05-07T02:53:45;11.80;99.90
30134;DHT22;16946;49.984;10.672;2023-05-07T02:54:16;11.80;99.90
30134;DHT22;16946;49.984;10.672;2023-05-07T02:54:48;11.80;99.90
30134;DHT22;16946;49.984;10.672;2023-05-07T02:55:18;11.80;99.90
30134;DHT22;16946;49.984;10.672;2023-05-07T02:55:49;11.80;99.90
30134;DHT22;16946;49.984;10.672;2023-05-07T02:56:20;11.80;99.90
30134;DHT22;16946;49.984;10.672;2023-05-07T02:56:51;11.80;99.90
30134;DHT22;16946;49.984;10.672;2023-05-07T02:57:21;11.80;99.90
30134;DHT22;16946;49.984;10.672;2023-05-07T02:57:52;11.80;99.90
30134;DHT22;16946;49.984;10.672;2023-05-07T02:58:23;11.80;99.90
30134;DHT22;16946;49.984;10.672;2023-05-07T02:58:53;11.80;99.90
30134;DHT22;16946;49.984;10.672;2023-05-07T02:59:24;11.80;99.90
30134;DHT22;16946;49.984;10.672;2023-05-07T02:59:57;11.80;99.90
30134;DHT22;16946;49.984;10.672;2023-05-07T03:00:28;11.80;99.90
30134;DHT22;16946;49.984;10.672;2023-05-07T03:00:58;11.80;99.90
30134;DHT22;16946;49.984;10.672;2023-05-07T03:01:29;11.80;99.90
30134;DHT22;16946;49.984;10.672;2023-05-07T03:02:00;11.80;99.90
30134;DHT22;16946;49.984;10.672;2023-05-07T03:02:30;11.80;99.90
30134;DHT22;16946;49.984;10.672;2023-05-07T03:03:01;11.80;99.90
30134;DHT22;16946;49.984;10.672;2023-05-07T03:03:31;11.80;99.90
30134;DHT22;16946;49.984;10.672;2023-05-07T03:04:02;11.80;99.90
30134;DHT22;16946;49.984;10.672;2023-05-07T03:04:32;11.80;99.90
30134;DHT22;16946;49.984;10.672;2023-05-07T03:05:03;11.80;99.90
30134;DHT22;16946;49.984;10.672;2023-05-07T03:05:34;11.80;99.90
30134;DHT22;16946;49.984;10.672;2023-05-07T03:06:04;11.80;99.90
30134;DHT22;16946;49.984;10.672;2023-05-07T03:06:35;11.80;99.90
30134;DHT22;16946;49.984;10.672;2023-05-07T03:07:05;11.90;99.90
30134;DHT22;16946;49.984;10.672;2023-05-07T03:07:36;11.90;99.90
30134;DHT22;16946;49.984;10.672;2023-05-07T03:08:07;11.90;99.90
30134;DHT22;16946;49.984;10.672;2023-05-07T03:08:38;11.90;99.90
30134;DHT22;16946;49.984;10.672;2023-05-07T03:09:08;11.90;99.90
30134;DHT22;16946;49.984;10.672;2023-05-07T03:09:39;11.80;99.90
30134;DHT22;16946;49.984;10.672;2023-05-07T03:10:09;11.80;99.90
30134;DHT22;16946;49.984;10.672;2023-05-07T03:10:40;11.80;99.90
30134;DHT22;16946;49.984;10.672;2023-05-07T03:11:10;11.80;99.90
30134;DHT22;16946;49.984;10.672;2023-05-07T03:11:41;11.80;99.90
30134;DHT22;16946;49.984;10.672;2023-05-07T03:12:11;11.80;99.90
30134;DHT22;16946;49.984;10.672;2023-05-07T03:12:42;11.90;99.90
30134;DHT22;16946;49.984;10.672;2023-05-07T03:13:12;11.80;99.90